<?xml version="1.0" encoding="UTF-8" standalone="no" ?>
<gpx xmlns="http://www.topografix.com/GPX/1/1" xmlns:xsi="http://www.w3.org/2001/XMLSchema-instance" xsi:schemaLocation="http://www.topografix.com/GPX/1/1 http://www.topografix.com/GPX/1/1/gpx.xsd" version="1.1" creator="VisuGPX - https://www.visugpx.com">
  <metadata>
    <name>Tracé actuel: 16 AOU 2020 07:58</name>
  </metadata>
  <trk>
    <name><![CDATA[Tracé actuel: 16 AOU 2020 07:58]]></name>
    <trkseg>
      <trkpt lat="49.63459" lon="4.98033">
        <ele>177.5</ele>
        <time>2020-08-16T05:58:27Z</time>
      </trkpt>
      <trkpt lat="49.63461" lon="4.98035">
        <ele>178.46</ele>
        <time>2020-08-16T05:58:55Z</time>
      </trkpt>
      <trkpt lat="49.63469" lon="4.98037">
        <ele>181.35</ele>
        <time>2020-08-16T05:59:16Z</time>
      </trkpt>
      <trkpt lat="49.63452" lon="4.98044">
        <ele>223.64</ele>
        <time>2020-08-16T06:01:07Z</time>
      </trkpt>
      <trkpt lat="49.63437" lon="4.98032">
        <ele>213.55</ele>
        <time>2020-08-16T06:01:26Z</time>
      </trkpt>
      <trkpt lat="49.63428" lon="4.98025">
        <ele>214.99</ele>
        <time>2020-08-16T06:01:38Z</time>
      </trkpt>
      <trkpt lat="49.63418" lon="4.98006">
        <ele>218.36</ele>
        <time>2020-08-16T06:02:02Z</time>
      </trkpt>
      <trkpt lat="49.63397" lon="4.97972">
        <ele>205.86</ele>
        <time>2020-08-16T06:02:25Z</time>
      </trkpt>
      <trkpt lat="49.63384" lon="4.97948">
        <ele>201.53</ele>
        <time>2020-08-16T06:02:49Z</time>
      </trkpt>
      <trkpt lat="49.63388" lon="4.9793">
        <ele>202.01</ele>
        <time>2020-08-16T06:03:09Z</time>
      </trkpt>
      <trkpt lat="49.63414" lon="4.97905">
        <ele>187.11</ele>
        <time>2020-08-16T06:03:38Z</time>
      </trkpt>
      <trkpt lat="49.63437" lon="4.97893">
        <ele>178.46</ele>
        <time>2020-08-16T06:04:03Z</time>
      </trkpt>
      <trkpt lat="49.63461" lon="4.97875">
        <ele>174.14</ele>
        <time>2020-08-16T06:04:31Z</time>
      </trkpt>
      <trkpt lat="49.63481" lon="4.97844">
        <ele>172.21</ele>
        <time>2020-08-16T06:04:58Z</time>
      </trkpt>
      <trkpt lat="49.63488" lon="4.97823">
        <ele>172.21</ele>
        <time>2020-08-16T06:05:13Z</time>
      </trkpt>
      <trkpt lat="49.63513" lon="4.97798">
        <ele>171.25</ele>
        <time>2020-08-16T06:05:41Z</time>
      </trkpt>
      <trkpt lat="49.6353" lon="4.97778">
        <ele>163.56</ele>
        <time>2020-08-16T06:06:07Z</time>
      </trkpt>
      <trkpt lat="49.63548" lon="4.9775">
        <ele>161.16</ele>
        <time>2020-08-16T06:06:33Z</time>
      </trkpt>
      <trkpt lat="49.63561" lon="4.97702">
        <ele>164.04</ele>
        <time>2020-08-16T06:07:01Z</time>
      </trkpt>
      <trkpt lat="49.63581" lon="4.9767">
        <ele>162.6</ele>
        <time>2020-08-16T06:07:27Z</time>
      </trkpt>
      <trkpt lat="49.63599" lon="4.97657">
        <ele>161.64</ele>
        <time>2020-08-16T06:07:46Z</time>
      </trkpt>
      <trkpt lat="49.63593" lon="4.97634">
        <ele>160.2</ele>
        <time>2020-08-16T06:08:01Z</time>
      </trkpt>
      <trkpt lat="49.63566" lon="4.97616">
        <ele>162.12</ele>
        <time>2020-08-16T06:08:27Z</time>
      </trkpt>
      <trkpt lat="49.63558" lon="4.97591">
        <ele>167.89</ele>
        <time>2020-08-16T06:08:49Z</time>
      </trkpt>
      <trkpt lat="49.63535" lon="4.97563">
        <ele>163.56</ele>
        <time>2020-08-16T06:09:14Z</time>
      </trkpt>
      <trkpt lat="49.63527" lon="4.97544">
        <ele>163.56</ele>
        <time>2020-08-16T06:09:34Z</time>
      </trkpt>
      <trkpt lat="49.63523" lon="4.97538">
        <ele>163.08</ele>
        <time>2020-08-16T06:09:39Z</time>
      </trkpt>
      <trkpt lat="49.63501" lon="4.97503">
        <ele>162.12</ele>
        <time>2020-08-16T06:10:05Z</time>
      </trkpt>
      <trkpt lat="49.63484" lon="4.97465">
        <ele>158.75</ele>
        <time>2020-08-16T06:10:33Z</time>
      </trkpt>
      <trkpt lat="49.63463" lon="4.97437">
        <ele>163.08</ele>
        <time>2020-08-16T06:10:59Z</time>
      </trkpt>
      <trkpt lat="49.63445" lon="4.97406">
        <ele>164.52</ele>
        <time>2020-08-16T06:11:23Z</time>
      </trkpt>
      <trkpt lat="49.6343" lon="4.97375">
        <ele>163.56</ele>
        <time>2020-08-16T06:11:49Z</time>
      </trkpt>
      <trkpt lat="49.63413" lon="4.97343">
        <ele>161.64</ele>
        <time>2020-08-16T06:12:13Z</time>
      </trkpt>
      <trkpt lat="49.63388" lon="4.97315">
        <ele>159.72</ele>
        <time>2020-08-16T06:12:37Z</time>
      </trkpt>
      <trkpt lat="49.63381" lon="4.97281">
        <ele>164.52</ele>
        <time>2020-08-16T06:13:04Z</time>
      </trkpt>
      <trkpt lat="49.63362" lon="4.97254">
        <ele>164.52</ele>
        <time>2020-08-16T06:13:27Z</time>
      </trkpt>
      <trkpt lat="49.63346" lon="4.97216">
        <ele>165.96</ele>
        <time>2020-08-16T06:13:54Z</time>
      </trkpt>
      <trkpt lat="49.63335" lon="4.97184">
        <ele>165.48</ele>
        <time>2020-08-16T06:14:16Z</time>
      </trkpt>
      <trkpt lat="49.63328" lon="4.97146">
        <ele>167.41</ele>
        <time>2020-08-16T06:14:41Z</time>
      </trkpt>
      <trkpt lat="49.63319" lon="4.97114">
        <ele>166.93</ele>
        <time>2020-08-16T06:15:05Z</time>
      </trkpt>
      <trkpt lat="49.63314" lon="4.97068">
        <ele>168.85</ele>
        <time>2020-08-16T06:15:31Z</time>
      </trkpt>
      <trkpt lat="49.63303" lon="4.9703">
        <ele>170.77</ele>
        <time>2020-08-16T06:15:55Z</time>
      </trkpt>
      <trkpt lat="49.63297" lon="4.96994">
        <ele>169.33</ele>
        <time>2020-08-16T06:16:18Z</time>
      </trkpt>
      <trkpt lat="49.63285" lon="4.96957">
        <ele>169.81</ele>
        <time>2020-08-16T06:16:42Z</time>
      </trkpt>
      <trkpt lat="49.63279" lon="4.96926">
        <ele>174.62</ele>
        <time>2020-08-16T06:17:06Z</time>
      </trkpt>
      <trkpt lat="49.63279" lon="4.96924">
        <ele>174.62</ele>
        <time>2020-08-16T06:17:07Z</time>
      </trkpt>
      <trkpt lat="49.63269" lon="4.96896">
        <ele>176.06</ele>
        <time>2020-08-16T06:17:29Z</time>
      </trkpt>
      <trkpt lat="49.63262" lon="4.96881">
        <ele>176.54</ele>
        <time>2020-08-16T06:17:52Z</time>
      </trkpt>
      <trkpt lat="49.63254" lon="4.96853">
        <ele>176.06</ele>
        <time>2020-08-16T06:18:02Z</time>
      </trkpt>
      <trkpt lat="49.63246" lon="4.96837">
        <ele>176.06</ele>
        <time>2020-08-16T06:18:11Z</time>
      </trkpt>
      <trkpt lat="49.63224" lon="4.96812">
        <ele>175.1</ele>
        <time>2020-08-16T06:18:33Z</time>
      </trkpt>
      <trkpt lat="49.63207" lon="4.9678">
        <ele>175.1</ele>
        <time>2020-08-16T06:18:58Z</time>
      </trkpt>
      <trkpt lat="49.63186" lon="4.96757">
        <ele>175.58</ele>
        <time>2020-08-16T06:19:24Z</time>
      </trkpt>
      <trkpt lat="49.63162" lon="4.96738">
        <ele>177.5</ele>
        <time>2020-08-16T06:19:49Z</time>
      </trkpt>
      <trkpt lat="49.63137" lon="4.96714">
        <ele>177.98</ele>
        <time>2020-08-16T06:20:14Z</time>
      </trkpt>
      <trkpt lat="49.63115" lon="4.967">
        <ele>178.94</ele>
        <time>2020-08-16T06:20:39Z</time>
      </trkpt>
      <trkpt lat="49.63114" lon="4.967">
        <ele>178.94</ele>
        <time>2020-08-16T06:20:40Z</time>
      </trkpt>
      <trkpt lat="49.63098" lon="4.96675">
        <ele>181.35</ele>
        <time>2020-08-16T06:21:02Z</time>
      </trkpt>
      <trkpt lat="49.63074" lon="4.96657">
        <ele>180.87</ele>
        <time>2020-08-16T06:21:24Z</time>
      </trkpt>
      <trkpt lat="49.63059" lon="4.96645">
        <ele>181.83</ele>
        <time>2020-08-16T06:21:47Z</time>
      </trkpt>
      <trkpt lat="49.63036" lon="4.96629">
        <ele>185.19</ele>
        <time>2020-08-16T06:22:12Z</time>
      </trkpt>
      <trkpt lat="49.63009" lon="4.96601">
        <ele>184.23</ele>
        <time>2020-08-16T06:22:38Z</time>
      </trkpt>
      <trkpt lat="49.62998" lon="4.96593">
        <ele>184.23</ele>
        <time>2020-08-16T06:22:58Z</time>
      </trkpt>
      <trkpt lat="49.6298" lon="4.96577">
        <ele>182.79</ele>
        <time>2020-08-16T06:23:23Z</time>
      </trkpt>
      <trkpt lat="49.62979" lon="4.96581">
        <ele>182.79</ele>
        <time>2020-08-16T06:23:49Z</time>
      </trkpt>
      <trkpt lat="49.62974" lon="4.96584">
        <ele>181.83</ele>
        <time>2020-08-16T06:24:11Z</time>
      </trkpt>
      <trkpt lat="49.62975" lon="4.9658">
        <ele>184.71</ele>
        <time>2020-08-16T06:24:33Z</time>
      </trkpt>
      <trkpt lat="49.62976" lon="4.96577">
        <ele>187.11</ele>
        <time>2020-08-16T06:24:56Z</time>
      </trkpt>
      <trkpt lat="49.62976" lon="4.9658">
        <ele>185.19</ele>
        <time>2020-08-16T06:25:25Z</time>
      </trkpt>
      <trkpt lat="49.62978" lon="4.96583">
        <ele>180.87</ele>
        <time>2020-08-16T06:25:46Z</time>
      </trkpt>
      <trkpt lat="49.62983" lon="4.96581">
        <ele>175.58</ele>
        <time>2020-08-16T06:26:10Z</time>
      </trkpt>
      <trkpt lat="49.6299" lon="4.96583">
        <ele>176.54</ele>
        <time>2020-08-16T06:26:34Z</time>
      </trkpt>
      <trkpt lat="49.62991" lon="4.9658">
        <ele>174.62</ele>
        <time>2020-08-16T06:26:58Z</time>
      </trkpt>
      <trkpt lat="49.62986" lon="4.96578">
        <ele>176.06</ele>
        <time>2020-08-16T06:27:23Z</time>
      </trkpt>
      <trkpt lat="49.62983" lon="4.96579">
        <ele>174.14</ele>
        <time>2020-08-16T06:27:50Z</time>
      </trkpt>
      <trkpt lat="49.62974" lon="4.96569">
        <ele>176.06</ele>
        <time>2020-08-16T06:28:10Z</time>
      </trkpt>
      <trkpt lat="49.62949" lon="4.96554">
        <ele>177.5</ele>
        <time>2020-08-16T06:28:32Z</time>
      </trkpt>
      <trkpt lat="49.62933" lon="4.96535">
        <ele>176.54</ele>
        <time>2020-08-16T06:28:53Z</time>
      </trkpt>
      <trkpt lat="49.6291" lon="4.96518">
        <ele>171.73</ele>
        <time>2020-08-16T06:29:14Z</time>
      </trkpt>
      <trkpt lat="49.629" lon="4.96507">
        <ele>172.21</ele>
        <time>2020-08-16T06:29:25Z</time>
      </trkpt>
      <trkpt lat="49.62875" lon="4.96488">
        <ele>172.69</ele>
        <time>2020-08-16T06:29:52Z</time>
      </trkpt>
      <trkpt lat="49.62841" lon="4.96478">
        <ele>174.62</ele>
        <time>2020-08-16T06:30:22Z</time>
      </trkpt>
      <trkpt lat="49.6282" lon="4.96467">
        <ele>175.1</ele>
        <time>2020-08-16T06:30:48Z</time>
      </trkpt>
      <trkpt lat="49.62796" lon="4.96453">
        <ele>176.06</ele>
        <time>2020-08-16T06:31:13Z</time>
      </trkpt>
      <trkpt lat="49.62763" lon="4.96439">
        <ele>173.17</ele>
        <time>2020-08-16T06:31:41Z</time>
      </trkpt>
      <trkpt lat="49.62735" lon="4.96416">
        <ele>173.66</ele>
        <time>2020-08-16T06:32:06Z</time>
      </trkpt>
      <trkpt lat="49.62711" lon="4.96404">
        <ele>170.29</ele>
        <time>2020-08-16T06:32:32Z</time>
      </trkpt>
      <trkpt lat="49.62681" lon="4.96394">
        <ele>165.96</ele>
        <time>2020-08-16T06:32:58Z</time>
      </trkpt>
      <trkpt lat="49.62659" lon="4.96378">
        <ele>164.52</ele>
        <time>2020-08-16T06:33:22Z</time>
      </trkpt>
      <trkpt lat="49.62632" lon="4.96361">
        <ele>165.96</ele>
        <time>2020-08-16T06:33:49Z</time>
      </trkpt>
      <trkpt lat="49.62607" lon="4.96346">
        <ele>165.96</ele>
        <time>2020-08-16T06:34:16Z</time>
      </trkpt>
      <trkpt lat="49.62593" lon="4.9634">
        <ele>168.37</ele>
        <time>2020-08-16T06:34:29Z</time>
      </trkpt>
      <trkpt lat="49.62559" lon="4.9633">
        <ele>164.04</ele>
        <time>2020-08-16T06:34:56Z</time>
      </trkpt>
      <trkpt lat="49.62536" lon="4.96317">
        <ele>164.52</ele>
        <time>2020-08-16T06:35:22Z</time>
      </trkpt>
      <trkpt lat="49.62515" lon="4.96305">
        <ele>166.45</ele>
        <time>2020-08-16T06:35:44Z</time>
      </trkpt>
      <trkpt lat="49.62501" lon="4.9629">
        <ele>169.81</ele>
        <time>2020-08-16T06:36:03Z</time>
      </trkpt>
      <trkpt lat="49.62485" lon="4.96287">
        <ele>169.33</ele>
        <time>2020-08-16T06:36:18Z</time>
      </trkpt>
      <trkpt lat="49.62469" lon="4.96287">
        <ele>168.37</ele>
        <time>2020-08-16T06:36:34Z</time>
      </trkpt>
      <trkpt lat="49.62449" lon="4.96272">
        <ele>171.25</ele>
        <time>2020-08-16T06:36:54Z</time>
      </trkpt>
      <trkpt lat="49.62427" lon="4.96258">
        <ele>171.25</ele>
        <time>2020-08-16T06:37:12Z</time>
      </trkpt>
      <trkpt lat="49.62399" lon="4.96248">
        <ele>168.37</ele>
        <time>2020-08-16T06:37:35Z</time>
      </trkpt>
      <trkpt lat="49.62389" lon="4.96238">
        <ele>169.33</ele>
        <time>2020-08-16T06:37:49Z</time>
      </trkpt>
      <trkpt lat="49.62386" lon="4.96236">
        <ele>170.29</ele>
        <time>2020-08-16T06:37:52Z</time>
      </trkpt>
      <trkpt lat="49.62356" lon="4.96229">
        <ele>174.14</ele>
        <time>2020-08-16T06:38:16Z</time>
      </trkpt>
      <trkpt lat="49.62331" lon="4.96214">
        <ele>177.02</ele>
        <time>2020-08-16T06:38:43Z</time>
      </trkpt>
      <trkpt lat="49.62299" lon="4.96214">
        <ele>173.17</ele>
        <time>2020-08-16T06:39:09Z</time>
      </trkpt>
      <trkpt lat="49.62278" lon="4.96201">
        <ele>174.14</ele>
        <time>2020-08-16T06:39:33Z</time>
      </trkpt>
      <trkpt lat="49.62251" lon="4.96195">
        <ele>177.02</ele>
        <time>2020-08-16T06:39:57Z</time>
      </trkpt>
      <trkpt lat="49.62224" lon="4.96186">
        <ele>178.94</ele>
        <time>2020-08-16T06:40:21Z</time>
      </trkpt>
      <trkpt lat="49.6221" lon="4.96181">
        <ele>183.27</ele>
        <time>2020-08-16T06:40:39Z</time>
      </trkpt>
      <trkpt lat="49.62181" lon="4.96178">
        <ele>180.38</ele>
        <time>2020-08-16T06:41:04Z</time>
      </trkpt>
      <trkpt lat="49.62173" lon="4.96176">
        <ele>179.42</ele>
        <time>2020-08-16T06:41:11Z</time>
      </trkpt>
      <trkpt lat="49.62142" lon="4.96171">
        <ele>178.94</ele>
        <time>2020-08-16T06:41:38Z</time>
      </trkpt>
      <trkpt lat="49.62121" lon="4.96164">
        <ele>175.58</ele>
        <time>2020-08-16T06:41:58Z</time>
      </trkpt>
      <trkpt lat="49.62096" lon="4.96155">
        <ele>172.69</ele>
        <time>2020-08-16T06:42:23Z</time>
      </trkpt>
      <trkpt lat="49.6207" lon="4.96151">
        <ele>171.73</ele>
        <time>2020-08-16T06:42:48Z</time>
      </trkpt>
      <trkpt lat="49.62042" lon="4.96144">
        <ele>171.73</ele>
        <time>2020-08-16T06:43:13Z</time>
      </trkpt>
      <trkpt lat="49.62021" lon="4.96138">
        <ele>170.77</ele>
        <time>2020-08-16T06:43:33Z</time>
      </trkpt>
      <trkpt lat="49.62015" lon="4.96138">
        <ele>170.29</ele>
        <time>2020-08-16T06:43:37Z</time>
      </trkpt>
      <trkpt lat="49.61986" lon="4.96133">
        <ele>168.85</ele>
        <time>2020-08-16T06:44:05Z</time>
      </trkpt>
      <trkpt lat="49.61961" lon="4.96128">
        <ele>167.89</ele>
        <time>2020-08-16T06:44:29Z</time>
      </trkpt>
      <trkpt lat="49.61928" lon="4.96119">
        <ele>170.77</ele>
        <time>2020-08-16T06:44:57Z</time>
      </trkpt>
      <trkpt lat="49.61899" lon="4.96114">
        <ele>169.81</ele>
        <time>2020-08-16T06:45:24Z</time>
      </trkpt>
      <trkpt lat="49.61868" lon="4.96105">
        <ele>165</ele>
        <time>2020-08-16T06:45:53Z</time>
      </trkpt>
      <trkpt lat="49.61849" lon="4.96098">
        <ele>165</ele>
        <time>2020-08-16T06:46:14Z</time>
      </trkpt>
      <trkpt lat="49.61823" lon="4.96087">
        <ele>169.33</ele>
        <time>2020-08-16T06:46:37Z</time>
      </trkpt>
      <trkpt lat="49.61788" lon="4.96078">
        <ele>174.14</ele>
        <time>2020-08-16T06:47:06Z</time>
      </trkpt>
      <trkpt lat="49.61764" lon="4.96073">
        <ele>176.06</ele>
        <time>2020-08-16T06:47:29Z</time>
      </trkpt>
      <trkpt lat="49.61737" lon="4.96069">
        <ele>179.42</ele>
        <time>2020-08-16T06:47:53Z</time>
      </trkpt>
      <trkpt lat="49.61711" lon="4.96062">
        <ele>182.79</ele>
        <time>2020-08-16T06:48:19Z</time>
      </trkpt>
      <trkpt lat="49.61685" lon="4.96058">
        <ele>185.67</ele>
        <time>2020-08-16T06:48:43Z</time>
      </trkpt>
      <trkpt lat="49.61662" lon="4.96058">
        <ele>189.04</ele>
        <time>2020-08-16T06:49:03Z</time>
      </trkpt>
      <trkpt lat="49.61639" lon="4.96048">
        <ele>188.08</ele>
        <time>2020-08-16T06:49:28Z</time>
      </trkpt>
      <trkpt lat="49.6162" lon="4.96039">
        <ele>188.56</ele>
        <time>2020-08-16T06:49:51Z</time>
      </trkpt>
      <trkpt lat="49.61599" lon="4.96031">
        <ele>189.52</ele>
        <time>2020-08-16T06:50:14Z</time>
      </trkpt>
      <trkpt lat="49.61578" lon="4.96019">
        <ele>187.11</ele>
        <time>2020-08-16T06:50:39Z</time>
      </trkpt>
      <trkpt lat="49.61554" lon="4.96008">
        <ele>185.19</ele>
        <time>2020-08-16T06:51:03Z</time>
      </trkpt>
      <trkpt lat="49.61535" lon="4.95998">
        <ele>182.79</ele>
        <time>2020-08-16T06:51:25Z</time>
      </trkpt>
      <trkpt lat="49.61502" lon="4.95978">
        <ele>182.31</ele>
        <time>2020-08-16T06:51:50Z</time>
      </trkpt>
      <trkpt lat="49.61476" lon="4.95962">
        <ele>182.79</ele>
        <time>2020-08-16T06:52:14Z</time>
      </trkpt>
      <trkpt lat="49.61465" lon="4.95956">
        <ele>180.87</ele>
        <time>2020-08-16T06:52:31Z</time>
      </trkpt>
      <trkpt lat="49.61444" lon="4.95927">
        <ele>178.46</ele>
        <time>2020-08-16T06:52:56Z</time>
      </trkpt>
      <trkpt lat="49.61426" lon="4.95891">
        <ele>177.98</ele>
        <time>2020-08-16T06:53:19Z</time>
      </trkpt>
      <trkpt lat="49.6141" lon="4.95867">
        <ele>178.46</ele>
        <time>2020-08-16T06:53:41Z</time>
      </trkpt>
      <trkpt lat="49.61389" lon="4.95834">
        <ele>177.02</ele>
        <time>2020-08-16T06:54:08Z</time>
      </trkpt>
      <trkpt lat="49.61368" lon="4.95812">
        <ele>177.98</ele>
        <time>2020-08-16T06:54:32Z</time>
      </trkpt>
      <trkpt lat="49.61352" lon="4.9578">
        <ele>179.9</ele>
        <time>2020-08-16T06:54:59Z</time>
      </trkpt>
      <trkpt lat="49.61326" lon="4.9576">
        <ele>180.87</ele>
        <time>2020-08-16T06:55:24Z</time>
      </trkpt>
      <trkpt lat="49.61301" lon="4.95739">
        <ele>179.9</ele>
        <time>2020-08-16T06:55:51Z</time>
      </trkpt>
      <trkpt lat="49.61279" lon="4.95718">
        <ele>178.46</ele>
        <time>2020-08-16T06:56:15Z</time>
      </trkpt>
      <trkpt lat="49.61254" lon="4.95699">
        <ele>180.87</ele>
        <time>2020-08-16T06:56:44Z</time>
      </trkpt>
      <trkpt lat="49.61234" lon="4.95681">
        <ele>179.42</ele>
        <time>2020-08-16T06:57:07Z</time>
      </trkpt>
      <trkpt lat="49.61205" lon="4.95666">
        <ele>179.42</ele>
        <time>2020-08-16T06:57:33Z</time>
      </trkpt>
      <trkpt lat="49.61179" lon="4.9565">
        <ele>179.42</ele>
        <time>2020-08-16T06:58:00Z</time>
      </trkpt>
      <trkpt lat="49.61158" lon="4.95638">
        <ele>178.46</ele>
        <time>2020-08-16T06:58:22Z</time>
      </trkpt>
      <trkpt lat="49.61137" lon="4.95614">
        <ele>177.98</ele>
        <time>2020-08-16T06:58:47Z</time>
      </trkpt>
      <trkpt lat="49.61114" lon="4.95604">
        <ele>175.58</ele>
        <time>2020-08-16T06:59:11Z</time>
      </trkpt>
      <trkpt lat="49.61092" lon="4.95593">
        <ele>174.62</ele>
        <time>2020-08-16T06:59:34Z</time>
      </trkpt>
      <trkpt lat="49.61066" lon="4.95574">
        <ele>175.58</ele>
        <time>2020-08-16T06:59:59Z</time>
      </trkpt>
      <trkpt lat="49.61059" lon="4.95573">
        <ele>175.58</ele>
        <time>2020-08-16T07:00:04Z</time>
      </trkpt>
      <trkpt lat="49.61036" lon="4.95564">
        <ele>180.38</ele>
        <time>2020-08-16T07:00:27Z</time>
      </trkpt>
      <trkpt lat="49.61011" lon="4.95544">
        <ele>182.79</ele>
        <time>2020-08-16T07:00:50Z</time>
      </trkpt>
      <trkpt lat="49.60985" lon="4.95541">
        <ele>185.19</ele>
        <time>2020-08-16T07:01:12Z</time>
      </trkpt>
      <trkpt lat="49.60961" lon="4.95523">
        <ele>188.56</ele>
        <time>2020-08-16T07:01:40Z</time>
      </trkpt>
      <trkpt lat="49.60925" lon="4.955">
        <ele>188.56</ele>
        <time>2020-08-16T07:02:09Z</time>
      </trkpt>
      <trkpt lat="49.60901" lon="4.95479">
        <ele>180.87</ele>
        <time>2020-08-16T07:02:37Z</time>
      </trkpt>
      <trkpt lat="49.6087" lon="4.95469">
        <ele>181.35</ele>
        <time>2020-08-16T07:03:06Z</time>
      </trkpt>
      <trkpt lat="49.60847" lon="4.95456">
        <ele>183.75</ele>
        <time>2020-08-16T07:03:30Z</time>
      </trkpt>
      <trkpt lat="49.60848" lon="4.9545">
        <ele>186.63</ele>
        <time>2020-08-16T07:03:46Z</time>
      </trkpt>
      <trkpt lat="49.60846" lon="4.95446">
        <ele>187.11</ele>
        <time>2020-08-16T07:04:03Z</time>
      </trkpt>
      <trkpt lat="49.60832" lon="4.95431">
        <ele>188.56</ele>
        <time>2020-08-16T07:04:25Z</time>
      </trkpt>
      <trkpt lat="49.60816" lon="4.95419">
        <ele>187.59</ele>
        <time>2020-08-16T07:04:46Z</time>
      </trkpt>
      <trkpt lat="49.60794" lon="4.95413">
        <ele>187.11</ele>
        <time>2020-08-16T07:05:10Z</time>
      </trkpt>
      <trkpt lat="49.60763" lon="4.95418">
        <ele>188.08</ele>
        <time>2020-08-16T07:05:33Z</time>
      </trkpt>
      <trkpt lat="49.60737" lon="4.95422">
        <ele>190.48</ele>
        <time>2020-08-16T07:05:57Z</time>
      </trkpt>
      <trkpt lat="49.60714" lon="4.95415">
        <ele>190.96</ele>
        <time>2020-08-16T07:06:20Z</time>
      </trkpt>
      <trkpt lat="49.60689" lon="4.95422">
        <ele>191.92</ele>
        <time>2020-08-16T07:06:46Z</time>
      </trkpt>
      <trkpt lat="49.60659" lon="4.9543">
        <ele>191.92</ele>
        <time>2020-08-16T07:07:12Z</time>
      </trkpt>
      <trkpt lat="49.60638" lon="4.95436">
        <ele>191.44</ele>
        <time>2020-08-16T07:07:33Z</time>
      </trkpt>
      <trkpt lat="49.60617" lon="4.95441">
        <ele>193.84</ele>
        <time>2020-08-16T07:07:55Z</time>
      </trkpt>
      <trkpt lat="49.60591" lon="4.95448">
        <ele>197.21</ele>
        <time>2020-08-16T07:08:18Z</time>
      </trkpt>
      <trkpt lat="49.60568" lon="4.95449">
        <ele>199.13</ele>
        <time>2020-08-16T07:08:40Z</time>
      </trkpt>
      <trkpt lat="49.6056" lon="4.9545">
        <ele>200.09</ele>
        <time>2020-08-16T07:08:53Z</time>
      </trkpt>
      <trkpt lat="49.60554" lon="4.95453">
        <ele>201.05</ele>
        <time>2020-08-16T07:08:59Z</time>
      </trkpt>
      <trkpt lat="49.60532" lon="4.95451">
        <ele>199.13</ele>
        <time>2020-08-16T07:09:22Z</time>
      </trkpt>
      <trkpt lat="49.60527" lon="4.95423">
        <ele>199.61</ele>
        <time>2020-08-16T07:09:39Z</time>
      </trkpt>
      <trkpt lat="49.60517" lon="4.95394">
        <ele>200.57</ele>
        <time>2020-08-16T07:10:00Z</time>
      </trkpt>
      <trkpt lat="49.60515" lon="4.95386">
        <ele>202.01</ele>
        <time>2020-08-16T07:10:05Z</time>
      </trkpt>
      <trkpt lat="49.60504" lon="4.9536">
        <ele>204.9</ele>
        <time>2020-08-16T07:10:27Z</time>
      </trkpt>
      <trkpt lat="49.60492" lon="4.9533">
        <ele>208.74</ele>
        <time>2020-08-16T07:10:50Z</time>
      </trkpt>
      <trkpt lat="49.60481" lon="4.95305">
        <ele>212.11</ele>
        <time>2020-08-16T07:11:08Z</time>
      </trkpt>
      <trkpt lat="49.60471" lon="4.95285">
        <ele>214.03</ele>
        <time>2020-08-16T07:11:26Z</time>
      </trkpt>
      <trkpt lat="49.60469" lon="4.95284">
        <ele>214.51</ele>
        <time>2020-08-16T07:11:43Z</time>
      </trkpt>
      <trkpt lat="49.60469" lon="4.95283">
        <ele>214.99</ele>
        <time>2020-08-16T07:12:07Z</time>
      </trkpt>
      <trkpt lat="49.60464" lon="4.95276">
        <ele>215.47</ele>
        <time>2020-08-16T07:12:28Z</time>
      </trkpt>
      <trkpt lat="49.6045" lon="4.95257">
        <ele>215.47</ele>
        <time>2020-08-16T07:12:44Z</time>
      </trkpt>
      <trkpt lat="49.60437" lon="4.9524">
        <ele>217.4</ele>
        <time>2020-08-16T07:13:01Z</time>
      </trkpt>
      <trkpt lat="49.60421" lon="4.95216">
        <ele>219.8</ele>
        <time>2020-08-16T07:13:21Z</time>
      </trkpt>
      <trkpt lat="49.60409" lon="4.95195">
        <ele>221.72</ele>
        <time>2020-08-16T07:13:41Z</time>
      </trkpt>
      <trkpt lat="49.60397" lon="4.95171">
        <ele>224.61</ele>
        <time>2020-08-16T07:14:00Z</time>
      </trkpt>
      <trkpt lat="49.6039" lon="4.9515">
        <ele>227.49</ele>
        <time>2020-08-16T07:14:15Z</time>
      </trkpt>
      <trkpt lat="49.60386" lon="4.95126">
        <ele>231.33</ele>
        <time>2020-08-16T07:14:31Z</time>
      </trkpt>
      <trkpt lat="49.60383" lon="4.951">
        <ele>232.78</ele>
        <time>2020-08-16T07:14:50Z</time>
      </trkpt>
      <trkpt lat="49.60379" lon="4.95074">
        <ele>234.22</ele>
        <time>2020-08-16T07:15:06Z</time>
      </trkpt>
      <trkpt lat="49.60375" lon="4.95051">
        <ele>236.14</ele>
        <time>2020-08-16T07:15:23Z</time>
      </trkpt>
      <trkpt lat="49.6037" lon="4.95019">
        <ele>239.02</ele>
        <time>2020-08-16T07:15:44Z</time>
      </trkpt>
      <trkpt lat="49.60367" lon="4.94993">
        <ele>239.51</ele>
        <time>2020-08-16T07:16:00Z</time>
      </trkpt>
      <trkpt lat="49.60367" lon="4.94992">
        <ele>239.51</ele>
        <time>2020-08-16T07:16:01Z</time>
      </trkpt>
      <trkpt lat="49.60365" lon="4.94979">
        <ele>240.47</ele>
        <time>2020-08-16T07:16:19Z</time>
      </trkpt>
      <trkpt lat="49.60362" lon="4.94963">
        <ele>241.43</ele>
        <time>2020-08-16T07:16:38Z</time>
      </trkpt>
      <trkpt lat="49.60358" lon="4.94934">
        <ele>245.27</ele>
        <time>2020-08-16T07:16:55Z</time>
      </trkpt>
      <trkpt lat="49.60354" lon="4.94906">
        <ele>246.72</ele>
        <time>2020-08-16T07:17:13Z</time>
      </trkpt>
      <trkpt lat="49.60348" lon="4.94879">
        <ele>250.08</ele>
        <time>2020-08-16T07:17:31Z</time>
      </trkpt>
      <trkpt lat="49.60346" lon="4.94868">
        <ele>250.56</ele>
        <time>2020-08-16T07:17:37Z</time>
      </trkpt>
      <trkpt lat="49.60336" lon="4.94842">
        <ele>255.37</ele>
        <time>2020-08-16T07:17:57Z</time>
      </trkpt>
      <trkpt lat="49.60326" lon="4.94814">
        <ele>258.73</ele>
        <time>2020-08-16T07:18:15Z</time>
      </trkpt>
      <trkpt lat="49.60321" lon="4.94792">
        <ele>261.14</ele>
        <time>2020-08-16T07:18:33Z</time>
      </trkpt>
      <trkpt lat="49.60311" lon="4.94761">
        <ele>262.58</ele>
        <time>2020-08-16T07:18:51Z</time>
      </trkpt>
      <trkpt lat="49.60305" lon="4.94729">
        <ele>262.58</ele>
        <time>2020-08-16T07:19:14Z</time>
      </trkpt>
      <trkpt lat="49.60305" lon="4.94721">
        <ele>263.54</ele>
        <time>2020-08-16T07:19:28Z</time>
      </trkpt>
      <trkpt lat="49.60304" lon="4.94716">
        <ele>263.54</ele>
        <time>2020-08-16T07:19:39Z</time>
      </trkpt>
      <trkpt lat="49.60297" lon="4.94676">
        <ele>266.9</ele>
        <time>2020-08-16T07:20:02Z</time>
      </trkpt>
      <trkpt lat="49.60289" lon="4.94639">
        <ele>268.83</ele>
        <time>2020-08-16T07:20:26Z</time>
      </trkpt>
      <trkpt lat="49.60283" lon="4.94618">
        <ele>270.75</ele>
        <time>2020-08-16T07:20:39Z</time>
      </trkpt>
      <trkpt lat="49.60276" lon="4.94582">
        <ele>272.19</ele>
        <time>2020-08-16T07:21:02Z</time>
      </trkpt>
      <trkpt lat="49.60267" lon="4.94549">
        <ele>272.67</ele>
        <time>2020-08-16T07:21:24Z</time>
      </trkpt>
      <trkpt lat="49.60264" lon="4.94512">
        <ele>272.67</ele>
        <time>2020-08-16T07:21:46Z</time>
      </trkpt>
      <trkpt lat="49.60256" lon="4.94505">
        <ele>272.67</ele>
        <time>2020-08-16T07:22:02Z</time>
      </trkpt>
      <trkpt lat="49.60254" lon="4.94506">
        <ele>273.15</ele>
        <time>2020-08-16T07:22:05Z</time>
      </trkpt>
      <trkpt lat="49.60228" lon="4.94523">
        <ele>271.71</ele>
        <time>2020-08-16T07:22:32Z</time>
      </trkpt>
      <trkpt lat="49.60225" lon="4.94527">
        <ele>271.23</ele>
        <time>2020-08-16T07:22:53Z</time>
      </trkpt>
      <trkpt lat="49.60224" lon="4.94527">
        <ele>271.71</ele>
        <time>2020-08-16T07:23:21Z</time>
      </trkpt>
      <trkpt lat="49.60213" lon="4.94536">
        <ele>272.19</ele>
        <time>2020-08-16T07:23:38Z</time>
      </trkpt>
      <trkpt lat="49.60191" lon="4.94545">
        <ele>274.59</ele>
        <time>2020-08-16T07:23:57Z</time>
      </trkpt>
      <trkpt lat="49.60188" lon="4.94543">
        <ele>275.56</ele>
        <time>2020-08-16T07:24:00Z</time>
      </trkpt>
      <trkpt lat="49.60171" lon="4.94524">
        <ele>279.4</ele>
        <time>2020-08-16T07:24:19Z</time>
      </trkpt>
      <trkpt lat="49.6015" lon="4.94507">
        <ele>281.8</ele>
        <time>2020-08-16T07:24:42Z</time>
      </trkpt>
      <trkpt lat="49.60129" lon="4.945">
        <ele>284.21</ele>
        <time>2020-08-16T07:25:01Z</time>
      </trkpt>
      <trkpt lat="49.60113" lon="4.94496">
        <ele>285.65</ele>
        <time>2020-08-16T07:25:16Z</time>
      </trkpt>
      <trkpt lat="49.60092" lon="4.94491">
        <ele>286.61</ele>
        <time>2020-08-16T07:25:36Z</time>
      </trkpt>
      <trkpt lat="49.60069" lon="4.94488">
        <ele>288.05</ele>
        <time>2020-08-16T07:25:56Z</time>
      </trkpt>
      <trkpt lat="49.6005" lon="4.94487">
        <ele>289.49</ele>
        <time>2020-08-16T07:26:14Z</time>
      </trkpt>
      <trkpt lat="49.60031" lon="4.94485">
        <ele>290.94</ele>
        <time>2020-08-16T07:26:34Z</time>
      </trkpt>
      <trkpt lat="49.60009" lon="4.94483">
        <ele>293.82</ele>
        <time>2020-08-16T07:26:56Z</time>
      </trkpt>
      <trkpt lat="49.59988" lon="4.94478">
        <ele>296.7</ele>
        <time>2020-08-16T07:27:15Z</time>
      </trkpt>
      <trkpt lat="49.59967" lon="4.94476">
        <ele>298.63</ele>
        <time>2020-08-16T07:27:35Z</time>
      </trkpt>
      <trkpt lat="49.59944" lon="4.94475">
        <ele>298.63</ele>
        <time>2020-08-16T07:27:57Z</time>
      </trkpt>
      <trkpt lat="49.59936" lon="4.94474">
        <ele>298.63</ele>
        <time>2020-08-16T07:28:04Z</time>
      </trkpt>
      <trkpt lat="49.59902" lon="4.9447">
        <ele>300.55</ele>
        <time>2020-08-16T07:28:35Z</time>
      </trkpt>
      <trkpt lat="49.59869" lon="4.94466">
        <ele>298.63</ele>
        <time>2020-08-16T07:29:04Z</time>
      </trkpt>
      <trkpt lat="49.5984" lon="4.94466">
        <ele>297.67</ele>
        <time>2020-08-16T07:29:29Z</time>
      </trkpt>
      <trkpt lat="49.59813" lon="4.94465">
        <ele>299.59</ele>
        <time>2020-08-16T07:29:55Z</time>
      </trkpt>
      <trkpt lat="49.59781" lon="4.94464">
        <ele>300.55</ele>
        <time>2020-08-16T07:30:22Z</time>
      </trkpt>
      <trkpt lat="49.59754" lon="4.9446">
        <ele>299.59</ele>
        <time>2020-08-16T07:30:47Z</time>
      </trkpt>
      <trkpt lat="49.59725" lon="4.94458">
        <ele>298.63</ele>
        <time>2020-08-16T07:31:14Z</time>
      </trkpt>
      <trkpt lat="49.59695" lon="4.94455">
        <ele>297.18</ele>
        <time>2020-08-16T07:31:41Z</time>
      </trkpt>
      <trkpt lat="49.59671" lon="4.94452">
        <ele>297.67</ele>
        <time>2020-08-16T07:32:04Z</time>
      </trkpt>
      <trkpt lat="49.59646" lon="4.9445">
        <ele>298.63</ele>
        <time>2020-08-16T07:32:28Z</time>
      </trkpt>
      <trkpt lat="49.59618" lon="4.94448">
        <ele>295.74</ele>
        <time>2020-08-16T07:32:54Z</time>
      </trkpt>
      <trkpt lat="49.59591" lon="4.94448">
        <ele>292.86</ele>
        <time>2020-08-16T07:33:20Z</time>
      </trkpt>
      <trkpt lat="49.5958" lon="4.94445">
        <ele>290.94</ele>
        <time>2020-08-16T07:33:30Z</time>
      </trkpt>
      <trkpt lat="49.59554" lon="4.9444">
        <ele>287.09</ele>
        <time>2020-08-16T07:33:53Z</time>
      </trkpt>
      <trkpt lat="49.59524" lon="4.94436">
        <ele>282.77</ele>
        <time>2020-08-16T07:34:21Z</time>
      </trkpt>
      <trkpt lat="49.59497" lon="4.94431">
        <ele>278.44</ele>
        <time>2020-08-16T07:34:47Z</time>
      </trkpt>
      <trkpt lat="49.59473" lon="4.94428">
        <ele>270.27</ele>
        <time>2020-08-16T07:35:12Z</time>
      </trkpt>
      <trkpt lat="49.59447" lon="4.94429">
        <ele>265.94</ele>
        <time>2020-08-16T07:35:39Z</time>
      </trkpt>
      <trkpt lat="49.59433" lon="4.9441">
        <ele>261.62</ele>
        <time>2020-08-16T07:36:01Z</time>
      </trkpt>
      <trkpt lat="49.59429" lon="4.9437">
        <ele>258.25</ele>
        <time>2020-08-16T07:36:24Z</time>
      </trkpt>
      <trkpt lat="49.59425" lon="4.94329">
        <ele>259.21</ele>
        <time>2020-08-16T07:36:47Z</time>
      </trkpt>
      <trkpt lat="49.59422" lon="4.94285">
        <ele>260.17</ele>
        <time>2020-08-16T07:37:12Z</time>
      </trkpt>
      <trkpt lat="49.5942" lon="4.94243">
        <ele>259.21</ele>
        <time>2020-08-16T07:37:37Z</time>
      </trkpt>
      <trkpt lat="49.59403" lon="4.94212">
        <ele>256.81</ele>
        <time>2020-08-16T07:38:01Z</time>
      </trkpt>
      <trkpt lat="49.59382" lon="4.94204">
        <ele>252</ele>
        <time>2020-08-16T07:38:23Z</time>
      </trkpt>
      <trkpt lat="49.5937" lon="4.942">
        <ele>250.08</ele>
        <time>2020-08-16T07:38:34Z</time>
      </trkpt>
      <trkpt lat="49.59341" lon="4.94191">
        <ele>246.72</ele>
        <time>2020-08-16T07:39:02Z</time>
      </trkpt>
      <trkpt lat="49.5933" lon="4.94192">
        <ele>246.72</ele>
        <time>2020-08-16T07:39:13Z</time>
      </trkpt>
      <trkpt lat="49.59299" lon="4.94205">
        <ele>244.31</ele>
        <time>2020-08-16T07:39:39Z</time>
      </trkpt>
      <trkpt lat="49.59278" lon="4.9421">
        <ele>243.83</ele>
        <time>2020-08-16T07:40:02Z</time>
      </trkpt>
      <trkpt lat="49.59275" lon="4.94226">
        <ele>243.35</ele>
        <time>2020-08-16T07:40:21Z</time>
      </trkpt>
      <trkpt lat="49.59277" lon="4.94248">
        <ele>239.02</ele>
        <time>2020-08-16T07:40:42Z</time>
      </trkpt>
      <trkpt lat="49.59255" lon="4.94232">
        <ele>233.74</ele>
        <time>2020-08-16T07:41:07Z</time>
      </trkpt>
      <trkpt lat="49.59238" lon="4.94205">
        <ele>232.78</ele>
        <time>2020-08-16T07:41:32Z</time>
      </trkpt>
      <trkpt lat="49.59218" lon="4.94178">
        <ele>229.41</ele>
        <time>2020-08-16T07:41:58Z</time>
      </trkpt>
      <trkpt lat="49.59202" lon="4.94158">
        <ele>227.49</ele>
        <time>2020-08-16T07:42:19Z</time>
      </trkpt>
      <trkpt lat="49.59195" lon="4.94146">
        <ele>226.53</ele>
        <time>2020-08-16T07:42:26Z</time>
      </trkpt>
      <trkpt lat="49.59173" lon="4.94103">
        <ele>225.57</ele>
        <time>2020-08-16T07:42:57Z</time>
      </trkpt>
      <trkpt lat="49.59174" lon="4.94112">
        <ele>225.09</ele>
        <time>2020-08-16T07:43:06Z</time>
      </trkpt>
      <trkpt lat="49.59175" lon="4.94116">
        <ele>225.09</ele>
        <time>2020-08-16T07:43:08Z</time>
      </trkpt>
      <trkpt lat="49.59194" lon="4.94153">
        <ele>223.64</ele>
        <time>2020-08-16T07:43:35Z</time>
      </trkpt>
      <trkpt lat="49.59205" lon="4.94181">
        <ele>227.01</ele>
        <time>2020-08-16T07:43:59Z</time>
      </trkpt>
      <trkpt lat="49.5922" lon="4.94205">
        <ele>227.49</ele>
        <time>2020-08-16T07:44:27Z</time>
      </trkpt>
      <trkpt lat="49.59238" lon="4.94256">
        <ele>223.16</ele>
        <time>2020-08-16T07:44:52Z</time>
      </trkpt>
      <trkpt lat="49.59254" lon="4.94307">
        <ele>218.84</ele>
        <time>2020-08-16T07:45:18Z</time>
      </trkpt>
      <trkpt lat="49.59254" lon="4.94311">
        <ele>218.36</ele>
        <time>2020-08-16T07:45:20Z</time>
      </trkpt>
      <trkpt lat="49.59253" lon="4.94351">
        <ele>217.88</ele>
        <time>2020-08-16T07:45:46Z</time>
      </trkpt>
      <trkpt lat="49.59257" lon="4.94402">
        <ele>218.84</ele>
        <time>2020-08-16T07:46:14Z</time>
      </trkpt>
      <trkpt lat="49.59268" lon="4.94444">
        <ele>217.4</ele>
        <time>2020-08-16T07:46:39Z</time>
      </trkpt>
      <trkpt lat="49.59271" lon="4.94487">
        <ele>214.03</ele>
        <time>2020-08-16T07:47:07Z</time>
      </trkpt>
      <trkpt lat="49.59269" lon="4.94533">
        <ele>209.22</ele>
        <time>2020-08-16T07:47:33Z</time>
      </trkpt>
      <trkpt lat="49.59269" lon="4.94579">
        <ele>204.9</ele>
        <time>2020-08-16T07:48:02Z</time>
      </trkpt>
      <trkpt lat="49.59264" lon="4.94624">
        <ele>200.57</ele>
        <time>2020-08-16T07:48:29Z</time>
      </trkpt>
      <trkpt lat="49.59267" lon="4.94675">
        <ele>199.13</ele>
        <time>2020-08-16T07:48:56Z</time>
      </trkpt>
      <trkpt lat="49.59268" lon="4.94708">
        <ele>197.69</ele>
        <time>2020-08-16T07:49:20Z</time>
      </trkpt>
      <trkpt lat="49.5927" lon="4.94755">
        <ele>197.69</ele>
        <time>2020-08-16T07:49:46Z</time>
      </trkpt>
      <trkpt lat="49.59269" lon="4.94795">
        <ele>193.36</ele>
        <time>2020-08-16T07:50:11Z</time>
      </trkpt>
      <trkpt lat="49.59275" lon="4.94845">
        <ele>192.88</ele>
        <time>2020-08-16T07:50:39Z</time>
      </trkpt>
      <trkpt lat="49.59282" lon="4.94897">
        <ele>197.21</ele>
        <time>2020-08-16T07:51:08Z</time>
      </trkpt>
      <trkpt lat="49.59287" lon="4.94942">
        <ele>198.17</ele>
        <time>2020-08-16T07:51:36Z</time>
      </trkpt>
      <trkpt lat="49.59294" lon="4.94988">
        <ele>202.98</ele>
        <time>2020-08-16T07:52:03Z</time>
      </trkpt>
      <trkpt lat="49.59299" lon="4.95026">
        <ele>203.94</ele>
        <time>2020-08-16T07:52:27Z</time>
      </trkpt>
      <trkpt lat="49.59304" lon="4.95078">
        <ele>207.78</ele>
        <time>2020-08-16T07:52:56Z</time>
      </trkpt>
      <trkpt lat="49.59311" lon="4.95121">
        <ele>207.78</ele>
        <time>2020-08-16T07:53:22Z</time>
      </trkpt>
      <trkpt lat="49.59316" lon="4.95169">
        <ele>204.42</ele>
        <time>2020-08-16T07:53:52Z</time>
      </trkpt>
      <trkpt lat="49.59324" lon="4.95203">
        <ele>202.49</ele>
        <time>2020-08-16T07:54:15Z</time>
      </trkpt>
      <trkpt lat="49.59333" lon="4.95234">
        <ele>205.86</ele>
        <time>2020-08-16T07:54:36Z</time>
      </trkpt>
      <trkpt lat="49.59349" lon="4.95278">
        <ele>205.38</ele>
        <time>2020-08-16T07:55:06Z</time>
      </trkpt>
      <trkpt lat="49.59359" lon="4.95321">
        <ele>207.3</ele>
        <time>2020-08-16T07:55:34Z</time>
      </trkpt>
      <trkpt lat="49.59369" lon="4.95359">
        <ele>203.46</ele>
        <time>2020-08-16T07:56:01Z</time>
      </trkpt>
      <trkpt lat="49.59389" lon="4.95401">
        <ele>198.65</ele>
        <time>2020-08-16T07:56:30Z</time>
      </trkpt>
      <trkpt lat="49.59401" lon="4.9544">
        <ele>201.53</ele>
        <time>2020-08-16T07:56:56Z</time>
      </trkpt>
      <trkpt lat="49.59422" lon="4.95473">
        <ele>201.05</ele>
        <time>2020-08-16T07:57:24Z</time>
      </trkpt>
      <trkpt lat="49.59442" lon="4.95495">
        <ele>201.53</ele>
        <time>2020-08-16T07:57:48Z</time>
      </trkpt>
      <trkpt lat="49.59463" lon="4.95502">
        <ele>199.61</ele>
        <time>2020-08-16T07:58:12Z</time>
      </trkpt>
      <trkpt lat="49.59465" lon="4.95502">
        <ele>199.61</ele>
        <time>2020-08-16T07:58:14Z</time>
      </trkpt>
      <trkpt lat="49.59494" lon="4.95499">
        <ele>200.57</ele>
        <time>2020-08-16T07:58:40Z</time>
      </trkpt>
      <trkpt lat="49.59522" lon="4.95493">
        <ele>199.61</ele>
        <time>2020-08-16T07:59:08Z</time>
      </trkpt>
      <trkpt lat="49.59552" lon="4.95486">
        <ele>200.57</ele>
        <time>2020-08-16T07:59:34Z</time>
      </trkpt>
      <trkpt lat="49.59576" lon="4.95482">
        <ele>204.42</ele>
        <time>2020-08-16T07:59:57Z</time>
      </trkpt>
      <trkpt lat="49.59601" lon="4.95484">
        <ele>203.46</ele>
        <time>2020-08-16T08:00:18Z</time>
      </trkpt>
      <trkpt lat="49.59634" lon="4.95483">
        <ele>203.46</ele>
        <time>2020-08-16T08:00:45Z</time>
      </trkpt>
      <trkpt lat="49.59659" lon="4.95487">
        <ele>202.98</ele>
        <time>2020-08-16T08:01:09Z</time>
      </trkpt>
      <trkpt lat="49.59689" lon="4.95491">
        <ele>205.38</ele>
        <time>2020-08-16T08:01:36Z</time>
      </trkpt>
      <trkpt lat="49.59711" lon="4.95487">
        <ele>198.65</ele>
        <time>2020-08-16T08:02:00Z</time>
      </trkpt>
      <trkpt lat="49.59737" lon="4.95492">
        <ele>189.52</ele>
        <time>2020-08-16T08:02:24Z</time>
      </trkpt>
      <trkpt lat="49.59763" lon="4.95496">
        <ele>180.87</ele>
        <time>2020-08-16T08:02:50Z</time>
      </trkpt>
      <trkpt lat="49.59792" lon="4.95497">
        <ele>177.02</ele>
        <time>2020-08-16T08:03:14Z</time>
      </trkpt>
      <trkpt lat="49.59821" lon="4.95489">
        <ele>179.42</ele>
        <time>2020-08-16T08:03:39Z</time>
      </trkpt>
      <trkpt lat="49.59849" lon="4.95476">
        <ele>185.19</ele>
        <time>2020-08-16T08:04:06Z</time>
      </trkpt>
      <trkpt lat="49.59857" lon="4.95469">
        <ele>187.11</ele>
        <time>2020-08-16T08:04:21Z</time>
      </trkpt>
      <trkpt lat="49.59881" lon="4.95489">
        <ele>188.08</ele>
        <time>2020-08-16T08:04:44Z</time>
      </trkpt>
      <trkpt lat="49.59884" lon="4.95493">
        <ele>197.21</ele>
        <time>2020-08-16T08:05:02Z</time>
      </trkpt>
      <trkpt lat="49.599" lon="4.95518">
        <ele>195.77</ele>
        <time>2020-08-16T08:05:28Z</time>
      </trkpt>
      <trkpt lat="49.59915" lon="4.95546">
        <ele>193.84</ele>
        <time>2020-08-16T08:05:50Z</time>
      </trkpt>
      <trkpt lat="49.59935" lon="4.95571">
        <ele>191.92</ele>
        <time>2020-08-16T08:06:14Z</time>
      </trkpt>
      <trkpt lat="49.5995" lon="4.95601">
        <ele>188.56</ele>
        <time>2020-08-16T08:06:37Z</time>
      </trkpt>
      <trkpt lat="49.5997" lon="4.95625">
        <ele>183.27</ele>
        <time>2020-08-16T08:06:59Z</time>
      </trkpt>
      <trkpt lat="49.5999" lon="4.95657">
        <ele>177.98</ele>
        <time>2020-08-16T08:07:22Z</time>
      </trkpt>
      <trkpt lat="49.60012" lon="4.95687">
        <ele>169.81</ele>
        <time>2020-08-16T08:07:50Z</time>
      </trkpt>
      <trkpt lat="49.60029" lon="4.9572">
        <ele>174.14</ele>
        <time>2020-08-16T08:08:12Z</time>
      </trkpt>
      <trkpt lat="49.60049" lon="4.95733">
        <ele>171.73</ele>
        <time>2020-08-16T08:08:35Z</time>
      </trkpt>
      <trkpt lat="49.60074" lon="4.95742">
        <ele>165.48</ele>
        <time>2020-08-16T08:09:01Z</time>
      </trkpt>
      <trkpt lat="49.60102" lon="4.95756">
        <ele>158.75</ele>
        <time>2020-08-16T08:09:25Z</time>
      </trkpt>
      <trkpt lat="49.60125" lon="4.9577">
        <ele>154.91</ele>
        <time>2020-08-16T08:09:50Z</time>
      </trkpt>
      <trkpt lat="49.6015" lon="4.95787">
        <ele>153.47</ele>
        <time>2020-08-16T08:10:12Z</time>
      </trkpt>
      <trkpt lat="49.60159" lon="4.95792">
        <ele>151.06</ele>
        <time>2020-08-16T08:10:25Z</time>
      </trkpt>
      <trkpt lat="49.60189" lon="4.95802">
        <ele>167.41</ele>
        <time>2020-08-16T08:10:45Z</time>
      </trkpt>
      <trkpt lat="49.60212" lon="4.95804">
        <ele>177.5</ele>
        <time>2020-08-16T08:11:07Z</time>
      </trkpt>
      <trkpt lat="49.60235" lon="4.95804">
        <ele>175.1</ele>
        <time>2020-08-16T08:11:28Z</time>
      </trkpt>
      <trkpt lat="49.60264" lon="4.95809">
        <ele>173.17</ele>
        <time>2020-08-16T08:11:52Z</time>
      </trkpt>
      <trkpt lat="49.6029" lon="4.95808">
        <ele>169.33</ele>
        <time>2020-08-16T08:12:13Z</time>
      </trkpt>
      <trkpt lat="49.60311" lon="4.95803">
        <ele>163.56</ele>
        <time>2020-08-16T08:12:33Z</time>
      </trkpt>
      <trkpt lat="49.60325" lon="4.95784">
        <ele>156.35</ele>
        <time>2020-08-16T08:12:51Z</time>
      </trkpt>
      <trkpt lat="49.60322" lon="4.95778">
        <ele>158.27</ele>
        <time>2020-08-16T08:12:55Z</time>
      </trkpt>
      <trkpt lat="49.60322" lon="4.95774">
        <ele>158.27</ele>
        <time>2020-08-16T08:12:57Z</time>
      </trkpt>
      <trkpt lat="49.60332" lon="4.95753">
        <ele>155.39</ele>
        <time>2020-08-16T08:13:17Z</time>
      </trkpt>
      <trkpt lat="49.60359" lon="4.95753">
        <ele>165.96</ele>
        <time>2020-08-16T08:13:41Z</time>
      </trkpt>
      <trkpt lat="49.60382" lon="4.95755">
        <ele>161.16</ele>
        <time>2020-08-16T08:14:04Z</time>
      </trkpt>
      <trkpt lat="49.60384" lon="4.9573">
        <ele>157.79</ele>
        <time>2020-08-16T08:14:23Z</time>
      </trkpt>
      <trkpt lat="49.60389" lon="4.95711">
        <ele>159.72</ele>
        <time>2020-08-16T08:14:32Z</time>
      </trkpt>
      <trkpt lat="49.60415" lon="4.95703">
        <ele>169.33</ele>
        <time>2020-08-16T08:14:54Z</time>
      </trkpt>
      <trkpt lat="49.60429" lon="4.95698">
        <ele>171.25</ele>
        <time>2020-08-16T08:15:15Z</time>
      </trkpt>
      <trkpt lat="49.60455" lon="4.95679">
        <ele>170.77</ele>
        <time>2020-08-16T08:15:40Z</time>
      </trkpt>
      <trkpt lat="49.60465" lon="4.95647">
        <ele>170.77</ele>
        <time>2020-08-16T08:16:03Z</time>
      </trkpt>
      <trkpt lat="49.60468" lon="4.95638">
        <ele>170.77</ele>
        <time>2020-08-16T08:16:09Z</time>
      </trkpt>
      <trkpt lat="49.60493" lon="4.95622">
        <ele>175.58</ele>
        <time>2020-08-16T08:16:36Z</time>
      </trkpt>
      <trkpt lat="49.60516" lon="4.95615">
        <ele>182.79</ele>
        <time>2020-08-16T08:17:00Z</time>
      </trkpt>
      <trkpt lat="49.60522" lon="4.95611">
        <ele>183.27</ele>
        <time>2020-08-16T08:17:07Z</time>
      </trkpt>
      <trkpt lat="49.60547" lon="4.95588">
        <ele>177.98</ele>
        <time>2020-08-16T08:17:33Z</time>
      </trkpt>
      <trkpt lat="49.60571" lon="4.95577">
        <ele>175.58</ele>
        <time>2020-08-16T08:17:57Z</time>
      </trkpt>
      <trkpt lat="49.60599" lon="4.95556">
        <ele>176.54</ele>
        <time>2020-08-16T08:18:24Z</time>
      </trkpt>
      <trkpt lat="49.60626" lon="4.95538">
        <ele>173.66</ele>
        <time>2020-08-16T08:18:51Z</time>
      </trkpt>
      <trkpt lat="49.60647" lon="4.95521">
        <ele>174.62</ele>
        <time>2020-08-16T08:19:12Z</time>
      </trkpt>
      <trkpt lat="49.6067" lon="4.95499">
        <ele>175.58</ele>
        <time>2020-08-16T08:19:34Z</time>
      </trkpt>
      <trkpt lat="49.60699" lon="4.95479">
        <ele>175.58</ele>
        <time>2020-08-16T08:20:01Z</time>
      </trkpt>
      <trkpt lat="49.60726" lon="4.95464">
        <ele>179.42</ele>
        <time>2020-08-16T08:20:26Z</time>
      </trkpt>
      <trkpt lat="49.60753" lon="4.95454">
        <ele>181.35</ele>
        <time>2020-08-16T08:20:50Z</time>
      </trkpt>
      <trkpt lat="49.60781" lon="4.95447">
        <ele>183.27</ele>
        <time>2020-08-16T08:21:13Z</time>
      </trkpt>
      <trkpt lat="49.60808" lon="4.95448">
        <ele>184.23</ele>
        <time>2020-08-16T08:21:36Z</time>
      </trkpt>
      <trkpt lat="49.60825" lon="4.95451">
        <ele>183.75</ele>
        <time>2020-08-16T08:21:58Z</time>
      </trkpt>
      <trkpt lat="49.60825" lon="4.95453">
        <ele>182.79</ele>
        <time>2020-08-16T08:22:18Z</time>
      </trkpt>
      <trkpt lat="49.60824" lon="4.95453">
        <ele>182.79</ele>
        <time>2020-08-16T08:22:48Z</time>
      </trkpt>
      <trkpt lat="49.60823" lon="4.95453">
        <ele>183.27</ele>
        <time>2020-08-16T08:23:15Z</time>
      </trkpt>
      <trkpt lat="49.60823" lon="4.95452">
        <ele>182.79</ele>
        <time>2020-08-16T08:23:44Z</time>
      </trkpt>
      <trkpt lat="49.60823" lon="4.95452">
        <ele>183.27</ele>
        <time>2020-08-16T08:24:12Z</time>
      </trkpt>
      <trkpt lat="49.60823" lon="4.95453">
        <ele>183.27</ele>
        <time>2020-08-16T08:24:38Z</time>
      </trkpt>
      <trkpt lat="49.60823" lon="4.95453">
        <ele>183.75</ele>
        <time>2020-08-16T08:25:10Z</time>
      </trkpt>
      <trkpt lat="49.60823" lon="4.95454">
        <ele>183.75</ele>
        <time>2020-08-16T08:25:41Z</time>
      </trkpt>
      <trkpt lat="49.60823" lon="4.95454">
        <ele>183.27</ele>
        <time>2020-08-16T08:26:11Z</time>
      </trkpt>
      <trkpt lat="49.60823" lon="4.95454">
        <ele>183.27</ele>
        <time>2020-08-16T08:26:46Z</time>
      </trkpt>
      <trkpt lat="49.60823" lon="4.95454">
        <ele>183.27</ele>
        <time>2020-08-16T08:27:14Z</time>
      </trkpt>
      <trkpt lat="49.60823" lon="4.95453">
        <ele>182.79</ele>
        <time>2020-08-16T08:27:41Z</time>
      </trkpt>
      <trkpt lat="49.6084" lon="4.95453">
        <ele>184.71</ele>
        <time>2020-08-16T08:28:01Z</time>
      </trkpt>
      <trkpt lat="49.60851" lon="4.95459">
        <ele>185.67</ele>
        <time>2020-08-16T08:28:14Z</time>
      </trkpt>
      <trkpt lat="49.60872" lon="4.95479">
        <ele>184.71</ele>
        <time>2020-08-16T08:28:37Z</time>
      </trkpt>
      <trkpt lat="49.60897" lon="4.95486">
        <ele>187.11</ele>
        <time>2020-08-16T08:29:01Z</time>
      </trkpt>
      <trkpt lat="49.60906" lon="4.95493">
        <ele>188.56</ele>
        <time>2020-08-16T08:29:12Z</time>
      </trkpt>
      <trkpt lat="49.60916" lon="4.95501">
        <ele>188.08</ele>
        <time>2020-08-16T08:36:34Z</time>
      </trkpt>
      <trkpt lat="49.6091" lon="4.95505">
        <ele>191.92</ele>
        <time>2020-08-16T08:37:02Z</time>
      </trkpt>
      <trkpt lat="49.60899" lon="4.95507">
        <ele>194.8</ele>
        <time>2020-08-16T08:37:26Z</time>
      </trkpt>
      <trkpt lat="49.60895" lon="4.95508">
        <ele>199.13</ele>
        <time>2020-08-16T08:37:40Z</time>
      </trkpt>
      <trkpt lat="49.60896" lon="4.95507">
        <ele>198.17</ele>
        <time>2020-08-16T08:38:06Z</time>
      </trkpt>
      <trkpt lat="49.60899" lon="4.95495">
        <ele>185.19</ele>
        <time>2020-08-16T08:38:21Z</time>
      </trkpt>
      <trkpt lat="49.60903" lon="4.95478">
        <ele>185.19</ele>
        <time>2020-08-16T08:38:38Z</time>
      </trkpt>
      <trkpt lat="49.60904" lon="4.95475">
        <ele>187.59</ele>
        <time>2020-08-16T08:38:55Z</time>
      </trkpt>
      <trkpt lat="49.60907" lon="4.95474">
        <ele>187.59</ele>
        <time>2020-08-16T08:38:58Z</time>
      </trkpt>
      <trkpt lat="49.60916" lon="4.9548">
        <ele>187.59</ele>
        <time>2020-08-16T08:39:12Z</time>
      </trkpt>
      <trkpt lat="49.6093" lon="4.9549">
        <ele>185.19</ele>
        <time>2020-08-16T08:39:27Z</time>
      </trkpt>
      <trkpt lat="49.60951" lon="4.95503">
        <ele>184.23</ele>
        <time>2020-08-16T08:39:47Z</time>
      </trkpt>
      <trkpt lat="49.6097" lon="4.95514">
        <ele>183.27</ele>
        <time>2020-08-16T08:40:05Z</time>
      </trkpt>
      <trkpt lat="49.60977" lon="4.95518">
        <ele>182.79</ele>
        <time>2020-08-16T08:40:11Z</time>
      </trkpt>
      <trkpt lat="49.60998" lon="4.9553">
        <ele>181.83</ele>
        <time>2020-08-16T08:40:30Z</time>
      </trkpt>
      <trkpt lat="49.61014" lon="4.95541">
        <ele>180.38</ele>
        <time>2020-08-16T08:40:46Z</time>
      </trkpt>
      <trkpt lat="49.61032" lon="4.95552">
        <ele>180.87</ele>
        <time>2020-08-16T08:41:03Z</time>
      </trkpt>
      <trkpt lat="49.61048" lon="4.95562">
        <ele>178.94</ele>
        <time>2020-08-16T08:41:21Z</time>
      </trkpt>
      <trkpt lat="49.61067" lon="4.95574">
        <ele>177.98</ele>
        <time>2020-08-16T08:41:40Z</time>
      </trkpt>
      <trkpt lat="49.61084" lon="4.95584">
        <ele>177.5</ele>
        <time>2020-08-16T08:41:55Z</time>
      </trkpt>
      <trkpt lat="49.61104" lon="4.95596">
        <ele>177.02</ele>
        <time>2020-08-16T08:42:14Z</time>
      </trkpt>
      <trkpt lat="49.61125" lon="4.95608">
        <ele>178.94</ele>
        <time>2020-08-16T08:42:33Z</time>
      </trkpt>
      <trkpt lat="49.61138" lon="4.95616">
        <ele>179.42</ele>
        <time>2020-08-16T08:42:46Z</time>
      </trkpt>
      <trkpt lat="49.61159" lon="4.95629">
        <ele>180.38</ele>
        <time>2020-08-16T08:43:06Z</time>
      </trkpt>
      <trkpt lat="49.61174" lon="4.95641">
        <ele>180.87</ele>
        <time>2020-08-16T08:43:24Z</time>
      </trkpt>
      <trkpt lat="49.61192" lon="4.9565">
        <ele>180.38</ele>
        <time>2020-08-16T08:43:41Z</time>
      </trkpt>
      <trkpt lat="49.61212" lon="4.95661">
        <ele>180.38</ele>
        <time>2020-08-16T08:44:00Z</time>
      </trkpt>
      <trkpt lat="49.61228" lon="4.9567">
        <ele>178.94</ele>
        <time>2020-08-16T08:44:16Z</time>
      </trkpt>
      <trkpt lat="49.61244" lon="4.95679">
        <ele>175.58</ele>
        <time>2020-08-16T08:44:32Z</time>
      </trkpt>
      <trkpt lat="49.6126" lon="4.9569">
        <ele>174.14</ele>
        <time>2020-08-16T08:44:48Z</time>
      </trkpt>
      <trkpt lat="49.61265" lon="4.95691">
        <ele>174.14</ele>
        <time>2020-08-16T08:44:52Z</time>
      </trkpt>
      <trkpt lat="49.61285" lon="4.95707">
        <ele>175.1</ele>
        <time>2020-08-16T08:45:11Z</time>
      </trkpt>
      <trkpt lat="49.61304" lon="4.95726">
        <ele>176.54</ele>
        <time>2020-08-16T08:45:30Z</time>
      </trkpt>
      <trkpt lat="49.61324" lon="4.95745">
        <ele>182.79</ele>
        <time>2020-08-16T08:45:48Z</time>
      </trkpt>
      <trkpt lat="49.61338" lon="4.95757">
        <ele>181.83</ele>
        <time>2020-08-16T08:46:03Z</time>
      </trkpt>
      <trkpt lat="49.61353" lon="4.95778">
        <ele>180.87</ele>
        <time>2020-08-16T08:46:22Z</time>
      </trkpt>
      <trkpt lat="49.61367" lon="4.95798">
        <ele>183.75</ele>
        <time>2020-08-16T08:46:39Z</time>
      </trkpt>
      <trkpt lat="49.61378" lon="4.95812">
        <ele>185.19</ele>
        <time>2020-08-16T08:46:51Z</time>
      </trkpt>
      <trkpt lat="49.61389" lon="4.95827">
        <ele>186.15</ele>
        <time>2020-08-16T08:47:06Z</time>
      </trkpt>
      <trkpt lat="49.61401" lon="4.95846">
        <ele>185.67</ele>
        <time>2020-08-16T08:47:22Z</time>
      </trkpt>
      <trkpt lat="49.61413" lon="4.95861">
        <ele>185.67</ele>
        <time>2020-08-16T08:47:35Z</time>
      </trkpt>
      <trkpt lat="49.61426" lon="4.95882">
        <ele>186.15</ele>
        <time>2020-08-16T08:47:53Z</time>
      </trkpt>
      <trkpt lat="49.61437" lon="4.959">
        <ele>185.19</ele>
        <time>2020-08-16T08:48:08Z</time>
      </trkpt>
      <trkpt lat="49.61453" lon="4.95923">
        <ele>183.27</ele>
        <time>2020-08-16T08:48:26Z</time>
      </trkpt>
      <trkpt lat="49.61467" lon="4.95939">
        <ele>180.87</ele>
        <time>2020-08-16T08:48:42Z</time>
      </trkpt>
      <trkpt lat="49.61483" lon="4.95953">
        <ele>182.31</ele>
        <time>2020-08-16T08:48:58Z</time>
      </trkpt>
      <trkpt lat="49.61499" lon="4.95966">
        <ele>179.9</ele>
        <time>2020-08-16T08:49:17Z</time>
      </trkpt>
      <trkpt lat="49.61518" lon="4.95976">
        <ele>181.83</ele>
        <time>2020-08-16T08:49:35Z</time>
      </trkpt>
      <trkpt lat="49.61533" lon="4.95987">
        <ele>180.87</ele>
        <time>2020-08-16T08:49:50Z</time>
      </trkpt>
      <trkpt lat="49.6155" lon="4.95994">
        <ele>180.87</ele>
        <time>2020-08-16T08:50:06Z</time>
      </trkpt>
      <trkpt lat="49.61568" lon="4.96002">
        <ele>179.42</ele>
        <time>2020-08-16T08:50:23Z</time>
      </trkpt>
      <trkpt lat="49.61585" lon="4.96008">
        <ele>180.38</ele>
        <time>2020-08-16T08:50:39Z</time>
      </trkpt>
      <trkpt lat="49.61606" lon="4.96013">
        <ele>178.46</ele>
        <time>2020-08-16T08:50:57Z</time>
      </trkpt>
      <trkpt lat="49.61625" lon="4.96019">
        <ele>174.62</ele>
        <time>2020-08-16T08:51:16Z</time>
      </trkpt>
      <trkpt lat="49.6165" lon="4.96024">
        <ele>178.46</ele>
        <time>2020-08-16T08:51:35Z</time>
      </trkpt>
      <trkpt lat="49.61668" lon="4.96029">
        <ele>174.62</ele>
        <time>2020-08-16T08:51:54Z</time>
      </trkpt>
      <trkpt lat="49.61688" lon="4.96034">
        <ele>173.17</ele>
        <time>2020-08-16T08:52:12Z</time>
      </trkpt>
      <trkpt lat="49.61707" lon="4.96041">
        <ele>171.73</ele>
        <time>2020-08-16T08:52:32Z</time>
      </trkpt>
      <trkpt lat="49.61732" lon="4.96046">
        <ele>172.21</ele>
        <time>2020-08-16T08:52:54Z</time>
      </trkpt>
      <trkpt lat="49.61755" lon="4.96055">
        <ele>176.06</ele>
        <time>2020-08-16T08:53:14Z</time>
      </trkpt>
      <trkpt lat="49.61776" lon="4.96061">
        <ele>175.1</ele>
        <time>2020-08-16T08:53:34Z</time>
      </trkpt>
      <trkpt lat="49.61797" lon="4.96067">
        <ele>175.1</ele>
        <time>2020-08-16T08:53:53Z</time>
      </trkpt>
      <trkpt lat="49.61819" lon="4.96075">
        <ele>177.5</ele>
        <time>2020-08-16T08:54:14Z</time>
      </trkpt>
      <trkpt lat="49.61837" lon="4.96084">
        <ele>179.42</ele>
        <time>2020-08-16T08:54:32Z</time>
      </trkpt>
      <trkpt lat="49.6184" lon="4.96086">
        <ele>179.42</ele>
        <time>2020-08-16T08:54:35Z</time>
      </trkpt>
      <trkpt lat="49.61849" lon="4.96098">
        <ele>179.9</ele>
        <time>2020-08-16T08:54:45Z</time>
      </trkpt>
      <trkpt lat="49.61868" lon="4.96103">
        <ele>178.94</ele>
        <time>2020-08-16T08:55:05Z</time>
      </trkpt>
      <trkpt lat="49.61886" lon="4.96107">
        <ele>179.9</ele>
        <time>2020-08-16T08:55:23Z</time>
      </trkpt>
      <trkpt lat="49.61903" lon="4.96109">
        <ele>179.9</ele>
        <time>2020-08-16T08:55:39Z</time>
      </trkpt>
      <trkpt lat="49.61922" lon="4.96112">
        <ele>179.9</ele>
        <time>2020-08-16T08:55:56Z</time>
      </trkpt>
      <trkpt lat="49.61932" lon="4.96117">
        <ele>179.42</ele>
        <time>2020-08-16T08:56:05Z</time>
      </trkpt>
      <trkpt lat="49.61952" lon="4.96116">
        <ele>179.42</ele>
        <time>2020-08-16T08:56:23Z</time>
      </trkpt>
      <trkpt lat="49.61956" lon="4.96119">
        <ele>178.46</ele>
        <time>2020-08-16T08:56:27Z</time>
      </trkpt>
      <trkpt lat="49.61958" lon="4.96119">
        <ele>178.46</ele>
        <time>2020-08-16T08:56:29Z</time>
      </trkpt>
      <trkpt lat="49.61965" lon="4.96119">
        <ele>178.94</ele>
        <time>2020-08-16T08:56:35Z</time>
      </trkpt>
      <trkpt lat="49.61985" lon="4.96124">
        <ele>179.42</ele>
        <time>2020-08-16T08:56:52Z</time>
      </trkpt>
      <trkpt lat="49.6199" lon="4.96124">
        <ele>179.42</ele>
        <time>2020-08-16T08:56:57Z</time>
      </trkpt>
      <trkpt lat="49.6201" lon="4.96128">
        <ele>179.9</ele>
        <time>2020-08-16T08:57:14Z</time>
      </trkpt>
      <trkpt lat="49.62028" lon="4.96133">
        <ele>179.9</ele>
        <time>2020-08-16T08:57:31Z</time>
      </trkpt>
      <trkpt lat="49.62051" lon="4.96139">
        <ele>180.38</ele>
        <time>2020-08-16T08:57:51Z</time>
      </trkpt>
      <trkpt lat="49.62073" lon="4.96145">
        <ele>178.94</ele>
        <time>2020-08-16T08:58:11Z</time>
      </trkpt>
      <trkpt lat="49.62095" lon="4.96151">
        <ele>178.46</ele>
        <time>2020-08-16T08:58:31Z</time>
      </trkpt>
      <trkpt lat="49.62106" lon="4.96154">
        <ele>178.94</ele>
        <time>2020-08-16T08:58:43Z</time>
      </trkpt>
      <trkpt lat="49.62126" lon="4.96158">
        <ele>178.94</ele>
        <time>2020-08-16T08:59:01Z</time>
      </trkpt>
      <trkpt lat="49.62145" lon="4.96164">
        <ele>179.9</ele>
        <time>2020-08-16T08:59:18Z</time>
      </trkpt>
      <trkpt lat="49.62167" lon="4.96169">
        <ele>180.38</ele>
        <time>2020-08-16T08:59:37Z</time>
      </trkpt>
      <trkpt lat="49.62187" lon="4.96175">
        <ele>180.87</ele>
        <time>2020-08-16T08:59:55Z</time>
      </trkpt>
      <trkpt lat="49.62207" lon="4.96177">
        <ele>183.27</ele>
        <time>2020-08-16T09:00:15Z</time>
      </trkpt>
      <trkpt lat="49.62226" lon="4.96182">
        <ele>181.35</ele>
        <time>2020-08-16T09:00:32Z</time>
      </trkpt>
      <trkpt lat="49.62247" lon="4.96189">
        <ele>178.94</ele>
        <time>2020-08-16T09:00:51Z</time>
      </trkpt>
      <trkpt lat="49.62267" lon="4.96194">
        <ele>178.94</ele>
        <time>2020-08-16T09:01:10Z</time>
      </trkpt>
      <trkpt lat="49.62284" lon="4.962">
        <ele>179.42</ele>
        <time>2020-08-16T09:01:25Z</time>
      </trkpt>
      <trkpt lat="49.62303" lon="4.96204">
        <ele>180.38</ele>
        <time>2020-08-16T09:01:41Z</time>
      </trkpt>
      <trkpt lat="49.62319" lon="4.96206">
        <ele>178.94</ele>
        <time>2020-08-16T09:01:56Z</time>
      </trkpt>
      <trkpt lat="49.62337" lon="4.96208">
        <ele>178.46</ele>
        <time>2020-08-16T09:02:12Z</time>
      </trkpt>
      <trkpt lat="49.62357" lon="4.96213">
        <ele>177.98</ele>
        <time>2020-08-16T09:02:30Z</time>
      </trkpt>
      <trkpt lat="49.62379" lon="4.96218">
        <ele>178.46</ele>
        <time>2020-08-16T09:02:50Z</time>
      </trkpt>
      <trkpt lat="49.62378" lon="4.96212">
        <ele>178.94</ele>
        <time>2020-08-16T09:02:58Z</time>
      </trkpt>
      <trkpt lat="49.62376" lon="4.96198">
        <ele>177.98</ele>
        <time>2020-08-16T09:03:08Z</time>
      </trkpt>
      <trkpt lat="49.62372" lon="4.96193">
        <ele>179.9</ele>
        <time>2020-08-16T09:03:24Z</time>
      </trkpt>
      <trkpt lat="49.62376" lon="4.96197">
        <ele>179.42</ele>
        <time>2020-08-16T09:03:33Z</time>
      </trkpt>
      <trkpt lat="49.62384" lon="4.96219">
        <ele>174.62</ele>
        <time>2020-08-16T09:03:50Z</time>
      </trkpt>
      <trkpt lat="49.62399" lon="4.96226">
        <ele>170.77</ele>
        <time>2020-08-16T09:04:07Z</time>
      </trkpt>
      <trkpt lat="49.62415" lon="4.96238">
        <ele>166.93</ele>
        <time>2020-08-16T09:04:27Z</time>
      </trkpt>
      <trkpt lat="49.62418" lon="4.96246">
        <ele>167.89</ele>
        <time>2020-08-16T09:04:32Z</time>
      </trkpt>
      <trkpt lat="49.62423" lon="4.9625">
        <ele>168.85</ele>
        <time>2020-08-16T09:04:36Z</time>
      </trkpt>
      <trkpt lat="49.62449" lon="4.96262">
        <ele>172.21</ele>
        <time>2020-08-16T09:04:56Z</time>
      </trkpt>
      <trkpt lat="49.62471" lon="4.96274">
        <ele>174.14</ele>
        <time>2020-08-16T09:05:15Z</time>
      </trkpt>
      <trkpt lat="49.6249" lon="4.96284">
        <ele>175.1</ele>
        <time>2020-08-16T09:05:32Z</time>
      </trkpt>
      <trkpt lat="49.6251" lon="4.96295">
        <ele>175.58</ele>
        <time>2020-08-16T09:05:50Z</time>
      </trkpt>
      <trkpt lat="49.62531" lon="4.96304">
        <ele>175.58</ele>
        <time>2020-08-16T09:06:09Z</time>
      </trkpt>
      <trkpt lat="49.62551" lon="4.96314">
        <ele>175.1</ele>
        <time>2020-08-16T09:06:27Z</time>
      </trkpt>
      <trkpt lat="49.62575" lon="4.96325">
        <ele>175.1</ele>
        <time>2020-08-16T09:06:49Z</time>
      </trkpt>
      <trkpt lat="49.6259" lon="4.96333">
        <ele>175.1</ele>
        <time>2020-08-16T09:07:04Z</time>
      </trkpt>
      <trkpt lat="49.62606" lon="4.96343">
        <ele>175.58</ele>
        <time>2020-08-16T09:07:19Z</time>
      </trkpt>
      <trkpt lat="49.62622" lon="4.96351">
        <ele>176.54</ele>
        <time>2020-08-16T09:07:34Z</time>
      </trkpt>
      <trkpt lat="49.62639" lon="4.96361">
        <ele>177.02</ele>
        <time>2020-08-16T09:07:51Z</time>
      </trkpt>
      <trkpt lat="49.62655" lon="4.96368">
        <ele>176.06</ele>
        <time>2020-08-16T09:08:07Z</time>
      </trkpt>
      <trkpt lat="49.6266" lon="4.96371">
        <ele>177.02</ele>
        <time>2020-08-16T09:08:20Z</time>
      </trkpt>
      <trkpt lat="49.62663" lon="4.96374">
        <ele>177.02</ele>
        <time>2020-08-16T09:08:34Z</time>
      </trkpt>
      <trkpt lat="49.62663" lon="4.96374">
        <ele>177.02</ele>
        <time>2020-08-16T09:08:47Z</time>
      </trkpt>
      <trkpt lat="49.62663" lon="4.96376">
        <ele>176.06</ele>
        <time>2020-08-16T09:09:20Z</time>
      </trkpt>
      <trkpt lat="49.62662" lon="4.96376">
        <ele>176.06</ele>
        <time>2020-08-16T09:09:34Z</time>
      </trkpt>
      <trkpt lat="49.62662" lon="4.96376">
        <ele>176.54</ele>
        <time>2020-08-16T09:09:48Z</time>
      </trkpt>
      <trkpt lat="49.62662" lon="4.96376">
        <ele>177.02</ele>
        <time>2020-08-16T09:10:09Z</time>
      </trkpt>
      <trkpt lat="49.62662" lon="4.96375">
        <ele>177.02</ele>
        <time>2020-08-16T09:10:39Z</time>
      </trkpt>
      <trkpt lat="49.62662" lon="4.96375">
        <ele>177.02</ele>
        <time>2020-08-16T09:11:08Z</time>
      </trkpt>
      <trkpt lat="49.62662" lon="4.96375">
        <ele>177.02</ele>
        <time>2020-08-16T09:11:34Z</time>
      </trkpt>
      <trkpt lat="49.62663" lon="4.96376">
        <ele>176.54</ele>
        <time>2020-08-16T09:11:59Z</time>
      </trkpt>
      <trkpt lat="49.62681" lon="4.96384">
        <ele>175.58</ele>
        <time>2020-08-16T09:12:20Z</time>
      </trkpt>
      <trkpt lat="49.62695" lon="4.96391">
        <ele>174.62</ele>
        <time>2020-08-16T09:12:33Z</time>
      </trkpt>
      <trkpt lat="49.62719" lon="4.96403">
        <ele>171.25</ele>
        <time>2020-08-16T09:12:56Z</time>
      </trkpt>
      <trkpt lat="49.62741" lon="4.96415">
        <ele>168.37</ele>
        <time>2020-08-16T09:13:20Z</time>
      </trkpt>
      <trkpt lat="49.62769" lon="4.96434">
        <ele>168.85</ele>
        <time>2020-08-16T09:13:45Z</time>
      </trkpt>
      <trkpt lat="49.62791" lon="4.96444">
        <ele>173.66</ele>
        <time>2020-08-16T09:14:06Z</time>
      </trkpt>
      <trkpt lat="49.62817" lon="4.96458">
        <ele>175.1</ele>
        <time>2020-08-16T09:14:29Z</time>
      </trkpt>
      <trkpt lat="49.62848" lon="4.96469">
        <ele>176.06</ele>
        <time>2020-08-16T09:14:54Z</time>
      </trkpt>
      <trkpt lat="49.62871" lon="4.96483">
        <ele>176.54</ele>
        <time>2020-08-16T09:15:20Z</time>
      </trkpt>
      <trkpt lat="49.62908" lon="4.96507">
        <ele>180.38</ele>
        <time>2020-08-16T09:15:45Z</time>
      </trkpt>
      <trkpt lat="49.62928" lon="4.96522">
        <ele>180.87</ele>
        <time>2020-08-16T09:16:12Z</time>
      </trkpt>
      <trkpt lat="49.62959" lon="4.9654">
        <ele>181.83</ele>
        <time>2020-08-16T09:16:35Z</time>
      </trkpt>
      <trkpt lat="49.6298" lon="4.96557">
        <ele>177.02</ele>
        <time>2020-08-16T09:17:02Z</time>
      </trkpt>
      <trkpt lat="49.63001" lon="4.96579">
        <ele>181.83</ele>
        <time>2020-08-16T09:17:17Z</time>
      </trkpt>
      <trkpt lat="49.63023" lon="4.96596">
        <ele>182.79</ele>
        <time>2020-08-16T09:17:39Z</time>
      </trkpt>
      <trkpt lat="49.63039" lon="4.96612">
        <ele>181.35</ele>
        <time>2020-08-16T09:18:01Z</time>
      </trkpt>
      <trkpt lat="49.63063" lon="4.96626">
        <ele>181.83</ele>
        <time>2020-08-16T09:18:21Z</time>
      </trkpt>
      <trkpt lat="49.63082" lon="4.96638">
        <ele>183.75</ele>
        <time>2020-08-16T09:18:42Z</time>
      </trkpt>
      <trkpt lat="49.63108" lon="4.96669">
        <ele>181.83</ele>
        <time>2020-08-16T09:19:06Z</time>
      </trkpt>
      <trkpt lat="49.63136" lon="4.96697">
        <ele>184.23</ele>
        <time>2020-08-16T09:19:31Z</time>
      </trkpt>
      <trkpt lat="49.63158" lon="4.96713">
        <ele>182.31</ele>
        <time>2020-08-16T09:19:53Z</time>
      </trkpt>
      <trkpt lat="49.63181" lon="4.9674">
        <ele>179.9</ele>
        <time>2020-08-16T09:20:17Z</time>
      </trkpt>
      <trkpt lat="49.63205" lon="4.96759">
        <ele>178.94</ele>
        <time>2020-08-16T09:20:42Z</time>
      </trkpt>
      <trkpt lat="49.63219" lon="4.96784">
        <ele>175.58</ele>
        <time>2020-08-16T09:21:03Z</time>
      </trkpt>
      <trkpt lat="49.63242" lon="4.96815">
        <ele>175.1</ele>
        <time>2020-08-16T09:21:27Z</time>
      </trkpt>
      <trkpt lat="49.63257" lon="4.96845">
        <ele>174.62</ele>
        <time>2020-08-16T09:21:52Z</time>
      </trkpt>
      <trkpt lat="49.63274" lon="4.96879">
        <ele>173.17</ele>
        <time>2020-08-16T09:22:14Z</time>
      </trkpt>
      <trkpt lat="49.63283" lon="4.96914">
        <ele>171.73</ele>
        <time>2020-08-16T09:22:38Z</time>
      </trkpt>
      <trkpt lat="49.63295" lon="4.96957">
        <ele>170.77</ele>
        <time>2020-08-16T09:23:02Z</time>
      </trkpt>
      <trkpt lat="49.63302" lon="4.96993">
        <ele>172.21</ele>
        <time>2020-08-16T09:23:24Z</time>
      </trkpt>
      <trkpt lat="49.6331" lon="4.97033">
        <ele>171.25</ele>
        <time>2020-08-16T09:23:48Z</time>
      </trkpt>
      <trkpt lat="49.6332" lon="4.97073">
        <ele>169.81</ele>
        <time>2020-08-16T09:24:13Z</time>
      </trkpt>
      <trkpt lat="49.63329" lon="4.97114">
        <ele>167.41</ele>
        <time>2020-08-16T09:24:37Z</time>
      </trkpt>
      <trkpt lat="49.6334" lon="4.97153">
        <ele>167.41</ele>
        <time>2020-08-16T09:25:00Z</time>
      </trkpt>
      <trkpt lat="49.63349" lon="4.97188">
        <ele>163.56</ele>
        <time>2020-08-16T09:25:26Z</time>
      </trkpt>
      <trkpt lat="49.6337" lon="4.97233">
        <ele>162.12</ele>
        <time>2020-08-16T09:25:52Z</time>
      </trkpt>
      <trkpt lat="49.63388" lon="4.97266">
        <ele>166.93</ele>
        <time>2020-08-16T09:26:18Z</time>
      </trkpt>
      <trkpt lat="49.63404" lon="4.97296">
        <ele>163.08</ele>
        <time>2020-08-16T09:26:45Z</time>
      </trkpt>
      <trkpt lat="49.63418" lon="4.97331">
        <ele>159.72</ele>
        <time>2020-08-16T09:27:10Z</time>
      </trkpt>
      <trkpt lat="49.63443" lon="4.97372">
        <ele>161.64</ele>
        <time>2020-08-16T09:27:37Z</time>
      </trkpt>
      <trkpt lat="49.63463" lon="4.97413">
        <ele>163.08</ele>
        <time>2020-08-16T09:28:06Z</time>
      </trkpt>
      <trkpt lat="49.63481" lon="4.97444">
        <ele>164.04</ele>
        <time>2020-08-16T09:28:30Z</time>
      </trkpt>
      <trkpt lat="49.63501" lon="4.97469">
        <ele>169.81</ele>
        <time>2020-08-16T09:28:53Z</time>
      </trkpt>
      <trkpt lat="49.63519" lon="4.97508">
        <ele>171.73</ele>
        <time>2020-08-16T09:29:18Z</time>
      </trkpt>
      <trkpt lat="49.63541" lon="4.97538">
        <ele>170.29</ele>
        <time>2020-08-16T09:29:42Z</time>
      </trkpt>
      <trkpt lat="49.63557" lon="4.97571">
        <ele>170.77</ele>
        <time>2020-08-16T09:30:06Z</time>
      </trkpt>
      <trkpt lat="49.63578" lon="4.97603">
        <ele>168.85</ele>
        <time>2020-08-16T09:30:32Z</time>
      </trkpt>
      <trkpt lat="49.63597" lon="4.97634">
        <ele>168.85</ele>
        <time>2020-08-16T09:30:57Z</time>
      </trkpt>
      <trkpt lat="49.63603" lon="4.97661">
        <ele>165.96</ele>
        <time>2020-08-16T09:31:19Z</time>
      </trkpt>
      <trkpt lat="49.63588" lon="4.97681">
        <ele>163.08</ele>
        <time>2020-08-16T09:31:39Z</time>
      </trkpt>
      <trkpt lat="49.63571" lon="4.97708">
        <ele>157.31</ele>
        <time>2020-08-16T09:32:02Z</time>
      </trkpt>
      <trkpt lat="49.63548" lon="4.9775">
        <ele>159.24</ele>
        <time>2020-08-16T09:32:30Z</time>
      </trkpt>
      <trkpt lat="49.63548" lon="4.97751">
        <ele>159.72</ele>
        <time>2020-08-16T09:32:31Z</time>
      </trkpt>
      <trkpt lat="49.63531" lon="4.97785">
        <ele>166.93</ele>
        <time>2020-08-16T09:32:53Z</time>
      </trkpt>
      <trkpt lat="49.63513" lon="4.9781">
        <ele>168.37</ele>
        <time>2020-08-16T09:33:16Z</time>
      </trkpt>
      <trkpt lat="49.63492" lon="4.97832">
        <ele>167.41</ele>
        <time>2020-08-16T09:33:39Z</time>
      </trkpt>
      <trkpt lat="49.63477" lon="4.9786">
        <ele>167.89</ele>
        <time>2020-08-16T09:33:59Z</time>
      </trkpt>
      <trkpt lat="49.63457" lon="4.9789">
        <ele>172.21</ele>
        <time>2020-08-16T09:34:21Z</time>
      </trkpt>
      <trkpt lat="49.63437" lon="4.97903">
        <ele>171.73</ele>
        <time>2020-08-16T09:34:39Z</time>
      </trkpt>
      <trkpt lat="49.63412" lon="4.97917">
        <ele>174.62</ele>
        <time>2020-08-16T09:35:01Z</time>
      </trkpt>
      <trkpt lat="49.63395" lon="4.97932">
        <ele>175.1</ele>
        <time>2020-08-16T09:35:21Z</time>
      </trkpt>
      <trkpt lat="49.6339" lon="4.97941">
        <ele>175.58</ele>
        <time>2020-08-16T09:35:28Z</time>
      </trkpt>
      <trkpt lat="49.63402" lon="4.97966">
        <ele>174.62</ele>
        <time>2020-08-16T09:35:47Z</time>
      </trkpt>
      <trkpt lat="49.63417" lon="4.97994">
        <ele>174.14</ele>
        <time>2020-08-16T09:36:08Z</time>
      </trkpt>
      <trkpt lat="49.63435" lon="4.98024">
        <ele>177.02</ele>
        <time>2020-08-16T09:36:29Z</time>
      </trkpt>
      <trkpt lat="49.63453" lon="4.98043">
        <ele>178.94</ele>
        <time>2020-08-16T09:36:48Z</time>
      </trkpt>
      <trkpt lat="49.63454" lon="4.98043">
        <ele>181.35</ele>
        <time>2020-08-16T09:37:01Z</time>
      </trkpt>
      <trkpt lat="49.63477" lon="4.98032">
        <ele>155.87</ele>
        <time>2020-08-16T09:47:52Z</time>
      </trkpt>
      <trkpt lat="49.63466" lon="4.98037">
        <ele>169.33</ele>
        <time>2020-08-16T09:48:13Z</time>
      </trkpt>
      <trkpt lat="49.63464" lon="4.98034">
        <ele>173.66</ele>
        <time>2020-08-16T09:48:18Z</time>
      </trkpt>
    </trkseg>
  </trk>
</gpx>